Terminal Aerodrome Forecast
Issued by NWS

Home | Current Version | Previous Version | Text Only | Print | Product List | Glossary Off
Versions: 1 2 3 4 5 6 7 8 9 10 11 12 13 14 15 16 17 18 19

000
FTUS43 KGRB 242332
TAFATW
TAF
KATW 242332Z 2500/2524 11007KT P6SM SCT070
     FM250600 14008KT P6SM SCT015 BKN060
     FM251200 16011G17KT P6SM BKN015 OVC040 PROB30 2516/2520 4SM
      -SHRA BR
     FM252000 19013G20KT 4SM SHRA BKN015 OVC025 PROB30 2520/2523 2SM
      TSRA BR BKN007 OVC015CB=

USA.gov is the U.S. government's official web portal to all federal, state and local government web resources and services.